sensor_id;sensor_type;location;lat;lon;timestamp;P1;durP1;ratioP1;P2;durP2;ratioP2
75429;SDS011;64127;51.488;5.462;2022-11-02T00:01:28;9.40;;;2.30;;
75429;SDS011;64127;51.488;5.462;2022-11-02T00:04:09;8.10;;;2.43;;
75429;SDS011;64127;51.488;5.462;2022-11-02T00:06:41;7.77;;;2.40;;
75429;SDS011;64127;51.488;5.462;2022-11-02T00:09:14;9.50;;;2.97;;
75429;SDS011;64127;51.488;5.462;2022-11-02T00:11:46;9.47;;;2.77;;
75429;SDS011;64127;51.488;5.462;2022-11-02T00:14:18;6.03;;;2.40;;
75429;SDS011;64127;51.488;5.462;2022-11-02T00:16:50;9.13;;;2.40;;
75429;SDS011;64127;51.488;5.462;2022-11-02T00:19:22;4.73;;;2.00;;
75429;SDS011;64127;51.488;5.462;2022-11-02T00:21:54;8.40;;;2.40;;
75429;SDS011;64127;51.488;5.462;2022-11-02T00:24:29;6.70;;;2.10;;
75429;SDS011;64127;51.488;5.462;2022-11-02T00:27:03;7.03;;;2.07;;
75429;SDS011;64127;51.488;5.462;2022-11-02T00:29:36;8.20;;;2.30;;
75429;SDS011;64127;51.488;5.462;2022-11-02T00:32:08;5.10;;;2.00;;
75429;SDS011;64127;51.488;5.462;2022-11-02T00:34:40;8.53;;;2.53;;
75429;SDS011;64127;51.488;5.462;2022-11-02T00:37:12;5.83;;;1.77;;
75429;SDS011;64127;51.488;5.462;2022-11-02T00:39:44;6.67;;;2.00;;
75429;SDS011;64127;51.488;5.462;2022-11-02T00:42:16;7.77;;;1.77;;
75429;SDS011;64127;51.488;5.462;2022-11-02T00:44:47;6.97;;;2.13;;
75429;SDS011;64127;51.488;5.462;2022-11-02T00:47:19;6.13;;;2.00;;
75429;SDS011;64127;51.488;5.462;2022-11-02T00:49:51;6.90;;;2.10;;
75429;SDS011;64127;51.488;5.462;2022-11-02T00:52:24;6.90;;;1.97;;
75429;SDS011;64127;51.488;5.462;2022-11-02T00:54:56;7.50;;;2.07;;
75429;SDS011;64127;51.488;5.462;2022-11-02T00:57:28;4.53;;;2.00;;
75429;SDS011;64127;51.488;5.462;2022-11-02T01:00:00;6.57;;;1.80;;
75429;SDS011;64127;51.488;5.462;2022-11-02T01:02:32;5.73;;;1.97;;
75429;SDS011;64127;51.488;5.462;2022-11-02T01:05:05;4.43;;;1.73;;
75429;SDS011;64127;51.488;5.462;2022-11-02T01:07:39;7.60;;;2.10;;
75429;SDS011;64127;51.488;5.462;2022-11-02T01:10:11;6.70;;;1.87;;
75429;SDS011;64127;51.488;5.462;2022-11-02T01:12:43;5.33;;;2.00;;
75429;SDS011;64127;51.488;5.462;2022-11-02T01:15:15;4.77;;;2.13;;
75429;SDS011;64127;51.488;5.462;2022-11-02T01:17:47;5.40;;;2.20;;
75429;SDS011;64127;51.488;5.462;2022-11-02T01:20:18;8.80;;;2.27;;
75429;SDS011;64127;51.488;5.462;2022-11-02T01:22:50;5.20;;;1.80;;
75429;SDS011;64127;51.488;5.462;2022-11-02T01:25:22;4.63;;;1.97;;
75429;SDS011;64127;51.488;5.462;2022-11-02T01:27:55;4.50;;;1.70;;
75429;SDS011;64127;51.488;5.462;2022-11-02T01:30:27;5.77;;;2.10;;
75429;SDS011;64127;51.488;5.462;2022-11-02T01:32:58;7.03;;;2.00;;
75429;SDS011;64127;51.488;5.462;2022-11-02T01:35:30;5.63;;;1.90;;
75429;SDS011;64127;51.488;5.462;2022-11-02T01:38:02;7.53;;;2.20;;
75429;SDS011;64127;51.488;5.462;2022-11-02T01:40:35;6.37;;;2.17;;
75429;SDS011;64127;51.488;5.462;2022-11-02T01:48:57;6.37;;;1.83;;
75429;SDS011;64127;51.488;5.462;2022-11-02T01:51:39;5.03;;;2.00;;
75429;SDS011;64127;51.488;5.462;2022-11-02T01:54:19;4.63;;;2.03;;
75429;SDS011;64127;51.488;5.462;2022-11-02T01:56:59;6.67;;;1.90;;
75429;SDS011;64127;51.488;5.462;2022-11-02T01:59:38;7.47;;;2.10;;
75429;SDS011;64127;51.488;5.462;2022-11-02T02:02:34;7.30;;;2.00;;
75429;SDS011;64127;51.488;5.462;2022-11-02T02:05:21;5.93;;;2.07;;
75429;SDS011;64127;51.488;5.462;2022-11-02T02:07:55;4.90;;;1.57;;
75429;SDS011;64127;51.488;5.462;2022-11-02T02:10:28;4.93;;;2.00;;
75429;SDS011;64127;51.488;5.462;2022-11-02T02:13:02;6.40;;;2.27;;
75429;SDS011;64127;51.488;5.462;2022-11-02T02:15:56;5.93;;;1.83;;
75429;SDS011;64127;51.488;5.462;2022-11-02T02:18:55;6.10;;;2.00;;
75429;SDS011;64127;51.488;5.462;2022-11-02T02:21:47;7.77;;;2.40;;
75429;SDS011;64127;51.488;5.462;2022-11-02T02:27:54;7.20;;;2.30;;
75429;SDS011;64127;51.488;5.462;2022-11-02T02:31:13;7.20;;;1.83;;
75429;SDS011;64127;51.488;5.462;2022-11-02T02:34:17;7.93;;;2.13;;
75429;SDS011;64127;51.488;5.462;2022-11-02T02:37:00;6.00;;;2.00;;
75429;SDS011;64127;51.488;5.462;2022-11-02T02:42:24;4.93;;;1.70;;
75429;SDS011;64127;51.488;5.462;2022-11-02T02:45:27;7.13;;;2.30;;
75429;SDS011;64127;51.488;5.462;2022-11-02T02:48:18;8.50;;;2.13;;
75429;SDS011;64127;51.488;5.462;2022-11-02T02:50:53;5.97;;;2.00;;
75429;SDS011;64127;51.488;5.462;2022-11-02T02:54:14;4.67;;;2.00;;
75429;SDS011;64127;51.488;5.462;2022-11-02T02:56:53;8.37;;;2.10;;
75429;SDS011;64127;51.488;5.462;2022-11-02T02:59:39;7.37;;;2.17;;
75429;SDS011;64127;51.488;5.462;2022-11-02T03:02:19;10.73;;;3.00;;
75429;SDS011;64127;51.488;5.462;2022-11-02T03:04:57;8.40;;;2.30;;
75429;SDS011;64127;51.488;5.462;2022-11-02T03:07:30;6.80;;;2.40;;
75429;SDS011;64127;51.488;5.462;2022-11-02T03:16:10;6.07;;;2.17;;
75429;SDS011;64127;51.488;5.462;2022-11-02T03:22:09;9.33;;;2.43;;
75429;SDS011;64127;51.488;5.462;2022-11-02T03:28:01;9.10;;;2.80;;
75429;SDS011;64127;51.488;5.462;2022-11-02T03:30:48;10.30;;;2.33;;
75429;SDS011;64127;51.488;5.462;2022-11-02T03:37:10;9.17;;;2.83;;
75429;SDS011;64127;51.488;5.462;2022-11-02T03:40:04;8.93;;;2.87;;
75429;SDS011;64127;51.488;5.462;2022-11-02T03:42:42;5.67;;;2.17;;
75429;SDS011;64127;51.488;5.462;2022-11-02T03:45:19;6.60;;;2.40;;
75429;SDS011;64127;51.488;5.462;2022-11-02T03:48:00;8.90;;;2.53;;
75429;SDS011;64127;51.488;5.462;2022-11-02T03:50:39;7.87;;;2.57;;
75429;SDS011;64127;51.488;5.462;2022-11-02T03:53:21;8.83;;;2.33;;
75429;SDS011;64127;51.488;5.462;2022-11-02T03:56:09;7.93;;;2.47;;
75429;SDS011;64127;51.488;5.462;2022-11-02T03:58:49;7.10;;;2.17;;
75429;SDS011;64127;51.488;5.462;2022-11-02T04:01:21;10.30;;;2.83;;
75429;SDS011;64127;51.488;5.462;2022-11-02T04:03:55;10.90;;;2.97;;
75429;SDS011;64127;51.488;5.462;2022-11-02T04:06:27;10.97;;;2.87;;
75429;SDS011;64127;51.488;5.462;2022-11-02T04:08:59;7.97;;;2.43;;
75429;SDS011;64127;51.488;5.462;2022-11-02T04:11:32;7.87;;;2.90;;
75429;SDS011;64127;51.488;5.462;2022-11-02T04:14:22;6.43;;;2.33;;
75429;SDS011;64127;51.488;5.462;2022-11-02T04:17:10;10.13;;;3.00;;
75429;SDS011;64127;51.488;5.462;2022-11-02T04:20:06;8.67;;;2.37;;
75429;SDS011;64127;51.488;5.462;2022-11-02T04:22:38;9.37;;;2.70;;
75429;SDS011;64127;51.488;5.462;2022-11-02T04:25:29;7.40;;;2.50;;
75429;SDS011;64127;51.488;5.462;2022-11-02T04:28:08;9.50;;;3.00;;
75429;SDS011;64127;51.488;5.462;2022-11-02T04:30:40;9.93;;;2.60;;
75429;SDS011;64127;51.488;5.462;2022-11-02T04:33:11;8.10;;;2.50;;
75429;SDS011;64127;51.488;5.462;2022-11-02T04:36:03;9.67;;;2.70;;
75429;SDS011;64127;51.488;5.462;2022-11-02T04:38:37;11.33;;;3.03;;
75429;SDS011;64127;51.488;5.462;2022-11-02T04:41:13;9.33;;;2.53;;
75429;SDS011;64127;51.488;5.462;2022-11-02T04:44:10;10.33;;;2.67;;
75429;SDS011;64127;51.488;5.462;2022-11-02T04:46:47;8.03;;;2.47;;
75429;SDS011;64127;51.488;5.462;2022-11-02T04:49:22;8.67;;;3.23;;
75429;SDS011;64127;51.488;5.462;2022-11-02T04:51:54;11.87;;;3.00;;
75429;SDS011;64127;51.488;5.462;2022-11-02T04:54:26;7.73;;;2.73;;
75429;SDS011;64127;51.488;5.462;2022-11-02T04:56:58;7.33;;;2.50;;
75429;SDS011;64127;51.488;5.462;2022-11-02T04:59:29;9.57;;;2.40;;
75429;SDS011;64127;51.488;5.462;2022-11-02T05:02:01;8.77;;;2.47;;
75429;SDS011;64127;51.488;5.462;2022-11-02T05:04:34;9.33;;;2.80;;
75429;SDS011;64127;51.488;5.462;2022-11-02T05:07:05;9.80;;;2.57;;
75429;SDS011;64127;51.488;5.462;2022-11-02T05:09:38;9.53;;;2.50;;
75429;SDS011;64127;51.488;5.462;2022-11-02T05:12:12;12.10;;;3.00;;
75429;SDS011;64127;51.488;5.462;2022-11-02T05:14:44;9.33;;;2.70;;
75429;SDS011;64127;51.488;5.462;2022-11-02T05:17:16;9.93;;;2.63;;
75429;SDS011;64127;51.488;5.462;2022-11-02T05:19:48;7.03;;;2.27;;
75429;SDS011;64127;51.488;5.462;2022-11-02T05:22:20;10.03;;;2.63;;
75429;SDS011;64127;51.488;5.462;2022-11-02T05:24:52;11.10;;;3.00;;
75429;SDS011;64127;51.488;5.462;2022-11-02T05:27:24;8.33;;;2.73;;
75429;SDS011;64127;51.488;5.462;2022-11-02T05:29:56;8.07;;;2.37;;
75429;SDS011;64127;51.488;5.462;2022-11-02T05:32:28;10.23;;;2.47;;
75429;SDS011;64127;51.488;5.462;2022-11-02T05:35:00;8.47;;;2.80;;
75429;SDS011;64127;51.488;5.462;2022-11-02T05:37:32;9.80;;;2.63;;
75429;SDS011;64127;51.488;5.462;2022-11-02T05:40:04;9.33;;;2.67;;
75429;SDS011;64127;51.488;5.462;2022-11-02T05:42:38;8.00;;;2.37;;
75429;SDS011;64127;51.488;5.462;2022-11-02T05:45:10;5.77;;;2.17;;
75429;SDS011;64127;51.488;5.462;2022-11-02T05:47:42;8.87;;;2.60;;
75429;SDS011;64127;51.488;5.462;2022-11-02T05:50:14;9.43;;;2.97;;
75429;SDS011;64127;51.488;5.462;2022-11-02T05:52:46;6.70;;;2.50;;
75429;SDS011;64127;51.488;5.462;2022-11-02T05:55:18;5.77;;;2.60;;
75429;SDS011;64127;51.488;5.462;2022-11-02T05:57:51;8.47;;;2.50;;
75429;SDS011;64127;51.488;5.462;2022-11-02T06:00:24;8.07;;;2.80;;
75429;SDS011;64127;51.488;5.462;2022-11-02T06:02:57;8.33;;;2.10;;
75429;SDS011;64127;51.488;5.462;2022-11-02T06:05:29;5.33;;;2.30;;
75429;SDS011;64127;51.488;5.462;2022-11-02T06:08:01;9.30;;;2.77;;
75429;SDS011;64127;51.488;5.462;2022-11-02T06:10:33;8.60;;;2.73;;
75429;SDS011;64127;51.488;5.462;2022-11-02T06:13:06;10.33;;;2.43;;
75429;SDS011;64127;51.488;5.462;2022-11-02T06:15:38;13.23;;;2.70;;
75429;SDS011;64127;51.488;5.462;2022-11-02T06:18:10;7.17;;;2.50;;
75429;SDS011;64127;51.488;5.462;2022-11-02T06:20:41;7.87;;;2.53;;
75429;SDS011;64127;51.488;5.462;2022-11-02T06:23:13;8.17;;;2.80;;
75429;SDS011;64127;51.488;5.462;2022-11-02T06:25:54;7.77;;;2.80;;
75429;SDS011;64127;51.488;5.462;2022-11-02T06:28:28;9.30;;;2.53;;
75429;SDS011;64127;51.488;5.462;2022-11-02T06:31:01;10.63;;;2.50;;
75429;SDS011;64127;51.488;5.462;2022-11-02T06:33:33;7.90;;;2.40;;
75429;SDS011;64127;51.488;5.462;2022-11-02T06:36:05;9.30;;;2.67;;
75429;SDS011;64127;51.488;5.462;2022-11-02T06:38:37;8.30;;;2.40;;
75429;SDS011;64127;51.488;5.462;2022-11-02T06:41:09;9.20;;;2.53;;
75429;SDS011;64127;51.488;5.462;2022-11-02T06:43:41;8.30;;;2.60;;
75429;SDS011;64127;51.488;5.462;2022-11-02T06:46:13;11.87;;;2.50;;
75429;SDS011;64127;51.488;5.462;2022-11-02T06:48:45;9.17;;;2.87;;
75429;SDS011;64127;51.488;5.462;2022-11-02T06:51:18;7.53;;;2.47;;
75429;SDS011;64127;51.488;5.462;2022-11-02T06:53:50;7.63;;;2.97;;
75429;SDS011;64127;51.488;5.462;2022-11-02T06:56:22;11.60;;;2.77;;
75429;SDS011;64127;51.488;5.462;2022-11-02T06:58:54;11.03;;;3.00;;
75429;SDS011;64127;51.488;5.462;2022-11-02T07:01:26;9.40;;;2.50;;
75429;SDS011;64127;51.488;5.462;2022-11-02T07:03:58;9.67;;;2.93;;
75429;SDS011;64127;51.488;5.462;2022-11-02T07:06:30;7.23;;;2.60;;
75429;SDS011;64127;51.488;5.462;2022-11-02T07:09:02;8.70;;;2.50;;
75429;SDS011;64127;51.488;5.462;2022-11-02T07:11:34;9.00;;;2.70;;
75429;SDS011;64127;51.488;5.462;2022-11-02T07:14:06;9.27;;;2.60;;
75429;SDS011;64127;51.488;5.462;2022-11-02T07:16:38;10.50;;;2.60;;
75429;SDS011;64127;51.488;5.462;2022-11-02T07:19:10;7.37;;;2.50;;
75429;SDS011;64127;51.488;5.462;2022-11-02T07:21:42;7.73;;;2.30;;
75429;SDS011;64127;51.488;5.462;2022-11-02T07:24:18;8.03;;;2.57;;
75429;SDS011;64127;51.488;5.462;2022-11-02T07:26:49;10.70;;;2.60;;
75429;SDS011;64127;51.488;5.462;2022-11-02T07:29:21;7.50;;;2.60;;
75429;SDS011;64127;51.488;5.462;2022-11-02T07:31:53;11.23;;;2.80;;
75429;SDS011;64127;51.488;5.462;2022-11-02T07:34:26;10.80;;;3.00;;
75429;SDS011;64127;51.488;5.462;2022-11-02T07:36:57;9.73;;;2.80;;
75429;SDS011;64127;51.488;5.462;2022-11-02T07:39:29;7.80;;;2.60;;
75429;SDS011;64127;51.488;5.462;2022-11-02T07:42:01;7.80;;;3.00;;
75429;SDS011;64127;51.488;5.462;2022-11-02T07:44:34;9.77;;;2.53;;
75429;SDS011;64127;51.488;5.462;2022-11-02T07:47:05;12.30;;;2.80;;
75429;SDS011;64127;51.488;5.462;2022-11-02T07:49:38;8.87;;;2.57;;
75429;SDS011;64127;51.488;5.462;2022-11-02T07:52:09;9.20;;;2.40;;
75429;SDS011;64127;51.488;5.462;2022-11-02T07:54:41;10.53;;;3.10;;
75429;SDS011;64127;51.488;5.462;2022-11-02T07:57:15;8.70;;;2.83;;
75429;SDS011;64127;51.488;5.462;2022-11-02T07:59:46;8.70;;;2.80;;
75429;SDS011;64127;51.488;5.462;2022-11-02T08:02:18;13.43;;;2.80;;
75429;SDS011;64127;51.488;5.462;2022-11-02T08:04:50;8.50;;;2.83;;
75429;SDS011;64127;51.488;5.462;2022-11-02T08:07:22;9.83;;;2.67;;
75429;SDS011;64127;51.488;5.462;2022-11-02T08:09:54;8.27;;;2.53;;
75429;SDS011;64127;51.488;5.462;2022-11-02T08:12:26;11.80;;;3.30;;
75429;SDS011;64127;51.488;5.462;2022-11-02T08:14:59;11.63;;;3.13;;
75429;SDS011;64127;51.488;5.462;2022-11-02T08:17:37;7.43;;;2.60;;
75429;SDS011;64127;51.488;5.462;2022-11-02T08:20:09;9.90;;;2.63;;
75429;SDS011;64127;51.488;5.462;2022-11-02T08:22:41;6.10;;;2.43;;
75429;SDS011;64127;51.488;5.462;2022-11-02T08:25:13;9.07;;;2.63;;
75429;SDS011;64127;51.488;5.462;2022-11-02T08:27:50;7.33;;;2.80;;
75429;SDS011;64127;51.488;5.462;2022-11-02T08:30:22;6.83;;;2.90;;
75429;SDS011;64127;51.488;5.462;2022-11-02T08:32:54;7.60;;;2.50;;
75429;SDS011;64127;51.488;5.462;2022-11-02T08:35:36;8.73;;;2.90;;
75429;SDS011;64127;51.488;5.462;2022-11-02T08:38:10;8.93;;;2.57;;
75429;SDS011;64127;51.488;5.462;2022-11-02T08:40:43;10.53;;;2.97;;
75429;SDS011;64127;51.488;5.462;2022-11-02T08:43:15;10.70;;;3.50;;
75429;SDS011;64127;51.488;5.462;2022-11-02T08:45:47;9.07;;;2.77;;
75429;SDS011;64127;51.488;5.462;2022-11-02T08:48:40;10.33;;;2.70;;
75429;SDS011;64127;51.488;5.462;2022-11-02T08:51:12;10.50;;;3.13;;
75429;SDS011;64127;51.488;5.462;2022-11-02T08:53:44;10.47;;;2.87;;
75429;SDS011;64127;51.488;5.462;2022-11-02T08:56:22;9.23;;;2.97;;
75429;SDS011;64127;51.488;5.462;2022-11-02T08:58:53;8.23;;;2.40;;
75429;SDS011;64127;51.488;5.462;2022-11-02T09:01:25;9.57;;;2.53;;
75429;SDS011;64127;51.488;5.462;2022-11-02T09:03:57;6.33;;;2.30;;
75429;SDS011;64127;51.488;5.462;2022-11-02T09:06:30;10.47;;;3.10;;
75429;SDS011;64127;51.488;5.462;2022-11-02T09:09:02;8.80;;;2.83;;
75429;SDS011;64127;51.488;5.462;2022-11-02T09:11:34;8.80;;;3.03;;
75429;SDS011;64127;51.488;5.462;2022-11-02T09:14:06;9.37;;;2.50;;
75429;SDS011;64127;51.488;5.462;2022-11-02T09:16:38;6.67;;;2.23;;
75429;SDS011;64127;51.488;5.462;2022-11-02T09:19:12;8.97;;;3.10;;
75429;SDS011;64127;51.488;5.462;2022-11-02T09:21:44;9.47;;;3.13;;
75429;SDS011;64127;51.488;5.462;2022-11-02T09:24:16;8.27;;;2.53;;
75429;SDS011;64127;51.488;5.462;2022-11-02T09:26:50;8.17;;;2.90;;
75429;SDS011;64127;51.488;5.462;2022-11-02T09:29:23;11.70;;;2.73;;
75429;SDS011;64127;51.488;5.462;2022-11-02T09:31:55;8.43;;;2.67;;
75429;SDS011;64127;51.488;5.462;2022-11-02T09:34:27;14.60;;;3.00;;
75429;SDS011;64127;51.488;5.462;2022-11-02T09:36:59;8.17;;;2.73;;
75429;SDS011;64127;51.488;5.462;2022-11-02T09:39:31;9.77;;;3.03;;
75429;SDS011;64127;51.488;5.462;2022-11-02T09:42:04;9.50;;;2.97;;
75429;SDS011;64127;51.488;5.462;2022-11-02T09:45:06;13.20;;;3.20;;
75429;SDS011;64127;51.488;5.462;2022-11-02T09:47:46;12.30;;;2.87;;
75429;SDS011;64127;51.488;5.462;2022-11-02T09:57:00;9.53;;;2.87;;
75429;SDS011;64127;51.488;5.462;2022-11-02T09:59:40;10.80;;;3.20;;
75429;SDS011;64127;51.488;5.462;2022-11-02T10:05:42;10.30;;;2.87;;
75429;SDS011;64127;51.488;5.462;2022-11-02T10:17:46;7.20;;;2.70;;
75429;SDS011;64127;51.488;5.462;2022-11-02T10:20:28;8.17;;;3.13;;
75429;SDS011;64127;51.488;5.462;2022-11-02T10:23:31;10.20;;;2.77;;
75429;SDS011;64127;51.488;5.462;2022-11-02T10:26:14;7.77;;;2.47;;
75429;SDS011;64127;51.488;5.462;2022-11-02T10:29:08;8.97;;;2.90;;
75429;SDS011;64127;51.488;5.462;2022-11-02T10:31:49;10.60;;;3.20;;
75429;SDS011;64127;51.488;5.462;2022-11-02T10:34:21;10.83;;;3.00;;
75429;SDS011;64127;51.488;5.462;2022-11-02T10:51:51;10.50;;;3.00;;
75429;SDS011;64127;51.488;5.462;2022-11-02T10:54:23;7.47;;;2.83;;
75429;SDS011;64127;51.488;5.462;2022-11-02T10:57:13;8.23;;;3.00;;
75429;SDS011;64127;51.488;5.462;2022-11-02T11:03:11;8.60;;;2.30;;
75429;SDS011;64127;51.488;5.462;2022-11-02T11:08:36;5.83;;;2.57;;
75429;SDS011;64127;51.488;5.462;2022-11-02T11:11:26;9.03;;;2.70;;
75429;SDS011;64127;51.488;5.462;2022-11-02T11:14:13;7.90;;;2.60;;
75429;SDS011;64127;51.488;5.462;2022-11-02T11:17:14;8.93;;;2.60;;
75429;SDS011;64127;51.488;5.462;2022-11-02T11:20:30;6.37;;;2.20;;
75429;SDS011;64127;51.488;5.462;2022-11-02T11:25:54;10.53;;;2.67;;
75429;SDS011;64127;51.488;5.462;2022-11-02T11:28:52;7.03;;;2.40;;
75429;SDS011;64127;51.488;5.462;2022-11-02T11:31:26;9.50;;;2.53;;
75429;SDS011;64127;51.488;5.462;2022-11-02T11:33:58;8.17;;;2.67;;
75429;SDS011;64127;51.488;5.462;2022-11-02T11:36:32;7.43;;;2.30;;
75429;SDS011;64127;51.488;5.462;2022-11-02T11:39:22;9.90;;;2.60;;
75429;SDS011;64127;51.488;5.462;2022-11-02T11:41:57;6.30;;;2.43;;
75429;SDS011;64127;51.488;5.462;2022-11-02T11:44:34;11.97;;;2.77;;
75429;SDS011;64127;51.488;5.462;2022-11-02T11:47:06;8.17;;;2.40;;
75429;SDS011;64127;51.488;5.462;2022-11-02T11:49:39;7.73;;;2.60;;
75429;SDS011;64127;51.488;5.462;2022-11-02T11:52:42;7.97;;;2.50;;
75429;SDS011;64127;51.488;5.462;2022-11-02T11:55:27;6.93;;;2.53;;
75429;SDS011;64127;51.488;5.462;2022-11-02T12:01:31;7.73;;;2.40;;
75429;SDS011;64127;51.488;5.462;2022-11-02T12:03:55;7.90;;;2.50;;
75429;SDS011;64127;51.488;5.462;2022-11-02T12:09:14;11.10;;;3.00;;
75429;SDS011;64127;51.488;5.462;2022-11-02T12:24:16;8.10;;;2.53;;
75429;SDS011;64127;51.488;5.462;2022-11-02T12:29:49;10.03;;;2.70;;
75429;SDS011;64127;51.488;5.462;2022-11-02T12:32:50;8.63;;;2.70;;
75429;SDS011;64127;51.488;5.462;2022-11-02T12:36:09;6.90;;;2.50;;
75429;SDS011;64127;51.488;5.462;2022-11-02T12:41:34;9.90;;;2.37;;
75429;SDS011;64127;51.488;5.462;2022-11-02T12:44:47;9.07;;;2.77;;
75429;SDS011;64127;51.488;5.462;2022-11-02T12:56:21;7.70;;;2.80;;
75429;SDS011;64127;51.488;5.462;2022-11-02T12:59:12;7.73;;;2.83;;
75429;SDS011;64127;51.488;5.462;2022-11-02T13:02:01;7.83;;;2.50;;
75429;SDS011;64127;51.488;5.462;2022-11-02T13:04:59;16.27;;;3.40;;
75429;SDS011;64127;51.488;5.462;2022-11-02T13:07:49;8.87;;;2.70;;
75429;SDS011;64127;51.488;5.462;2022-11-02T13:10:37;7.83;;;2.43;;
75429;SDS011;64127;51.488;5.462;2022-11-02T13:13:27;7.47;;;2.80;;
75429;SDS011;64127;51.488;5.462;2022-11-02T13:16:12;8.50;;;2.80;;
75429;SDS011;64127;51.488;5.462;2022-11-02T13:18:51;11.33;;;2.90;;
75429;SDS011;64127;51.488;5.462;2022-11-02T13:21:32;7.63;;;2.67;;
75429;SDS011;64127;51.488;5.462;2022-11-02T13:24:16;9.77;;;2.60;;
75429;SDS011;64127;51.488;5.462;2022-11-02T13:26:58;9.63;;;2.40;;
75429;SDS011;64127;51.488;5.462;2022-11-02T13:30:00;8.77;;;2.40;;
75429;SDS011;64127;51.488;5.462;2022-11-02T13:32:47;7.80;;;2.23;;
75429;SDS011;64127;51.488;5.462;2022-11-02T13:35:35;6.33;;;2.63;;
75429;SDS011;64127;51.488;5.462;2022-11-02T13:38:32;6.93;;;2.80;;
75429;SDS011;64127;51.488;5.462;2022-11-02T13:41:18;7.13;;;2.60;;
75429;SDS011;64127;51.488;5.462;2022-11-02T13:50:30;8.70;;;2.87;;
75429;SDS011;64127;51.488;5.462;2022-11-02T13:53:06;6.20;;;2.33;;
75429;SDS011;64127;51.488;5.462;2022-11-02T13:55:56;12.37;;;2.83;;
75429;SDS011;64127;51.488;5.462;2022-11-02T13:58:33;9.37;;;2.97;;
75429;SDS011;64127;51.488;5.462;2022-11-02T14:01:14;8.60;;;2.93;;
75429;SDS011;64127;51.488;5.462;2022-11-02T14:06:32;7.13;;;2.40;;
75429;SDS011;64127;51.488;5.462;2022-11-02T14:28:40;8.63;;;2.87;;
75429;SDS011;64127;51.488;5.462;2022-11-02T14:34:08;10.77;;;2.73;;
75429;SDS011;64127;51.488;5.462;2022-11-02T14:37:50;10.70;;;2.77;;
75429;SDS011;64127;51.488;5.462;2022-11-02T14:49:34;8.37;;;2.80;;
75429;SDS011;64127;51.488;5.462;2022-11-02T14:52:21;7.53;;;2.63;;
75429;SDS011;64127;51.488;5.462;2022-11-02T15:00:53;9.90;;;2.47;;
75429;SDS011;64127;51.488;5.462;2022-11-02T15:03:37;9.50;;;2.70;;
75429;SDS011;64127;51.488;5.462;2022-11-02T15:09:02;6.77;;;2.70;;
75429;SDS011;64127;51.488;5.462;2022-11-02T15:19:43;10.33;;;2.73;;
75429;SDS011;64127;51.488;5.462;2022-11-02T15:27:40;7.87;;;2.73;;
75429;SDS011;64127;51.488;5.462;2022-11-02T15:30:15;8.67;;;2.63;;
75429;SDS011;64127;51.488;5.462;2022-11-02T15:32:59;7.93;;;2.60;;
75429;SDS011;64127;51.488;5.462;2022-11-02T15:35:38;9.47;;;2.60;;
75429;SDS011;64127;51.488;5.462;2022-11-02T15:38:10;7.83;;;2.43;;
75429;SDS011;64127;51.488;5.462;2022-11-02T15:46:35;8.50;;;2.83;;
75429;SDS011;64127;51.488;5.462;2022-11-02T16:02:26;7.23;;;2.23;;
75429;SDS011;64127;51.488;5.462;2022-11-02T16:05:03;8.47;;;2.33;;
75429;SDS011;64127;51.488;5.462;2022-11-02T16:07:36;9.70;;;2.43;;
75429;SDS011;64127;51.488;5.462;2022-11-02T16:10:32;9.97;;;2.90;;
75429;SDS011;64127;51.488;5.462;2022-11-02T16:16:00;7.50;;;2.77;;
75429;SDS011;64127;51.488;5.462;2022-11-02T16:18:37;9.20;;;2.40;;
75429;SDS011;64127;51.488;5.462;2022-11-02T16:21:14;8.17;;;2.60;;
75429;SDS011;64127;51.488;5.462;2022-11-02T16:23:50;8.90;;;3.10;;
75429;SDS011;64127;51.488;5.462;2022-11-02T16:26:27;7.17;;;2.80;;
75429;SDS011;64127;51.488;5.462;2022-11-02T16:29:00;8.27;;;2.70;;
75429;SDS011;64127;51.488;5.462;2022-11-02T16:31:38;7.23;;;2.70;;
75429;SDS011;64127;51.488;5.462;2022-11-02T16:36:55;6.47;;;2.47;;
75429;SDS011;64127;51.488;5.462;2022-11-02T16:39:37;7.77;;;2.60;;
75429;SDS011;64127;51.488;5.462;2022-11-02T16:42:16;7.70;;;2.37;;
75429;SDS011;64127;51.488;5.462;2022-11-02T16:44:53;10.00;;;2.57;;
75429;SDS011;64127;51.488;5.462;2022-11-02T16:47:36;8.13;;;2.63;;
75429;SDS011;64127;51.488;5.462;2022-11-02T16:50:19;10.30;;;2.97;;
75429;SDS011;64127;51.488;5.462;2022-11-02T16:52:55;7.87;;;2.77;;
75429;SDS011;64127;51.488;5.462;2022-11-02T16:58:11;6.47;;;2.57;;
75429;SDS011;64127;51.488;5.462;2022-11-02T17:00:53;8.60;;;2.60;;
75429;SDS011;64127;51.488;5.462;2022-11-02T17:03:33;8.33;;;2.33;;
75429;SDS011;64127;51.488;5.462;2022-11-02T17:06:05;6.13;;;2.30;;
75429;SDS011;64127;51.488;5.462;2022-11-02T17:08:38;10.07;;;2.70;;
75429;SDS011;64127;51.488;5.462;2022-11-02T17:11:15;9.60;;;2.43;;
75429;SDS011;64127;51.488;5.462;2022-11-02T17:13:50;9.50;;;2.63;;
75429;SDS011;64127;51.488;5.462;2022-11-02T17:16:25;8.30;;;3.10;;
75429;SDS011;64127;51.488;5.462;2022-11-02T17:19:04;6.60;;;2.60;;
75429;SDS011;64127;51.488;5.462;2022-11-02T17:21:36;6.93;;;2.80;;
75429;SDS011;64127;51.488;5.462;2022-11-02T17:24:28;8.40;;;3.40;;
75429;SDS011;64127;51.488;5.462;2022-11-02T17:27:23;7.03;;;2.70;;
75429;SDS011;64127;51.488;5.462;2022-11-02T17:29:58;9.47;;;2.83;;
75429;SDS011;64127;51.488;5.462;2022-11-02T17:32:30;8.57;;;3.10;;
75429;SDS011;64127;51.488;5.462;2022-11-02T17:35:02;6.83;;;3.03;;
75429;SDS011;64127;51.488;5.462;2022-11-02T17:37:35;8.50;;;3.30;;
75429;SDS011;64127;51.488;5.462;2022-11-02T17:40:08;11.07;;;3.40;;
75429;SDS011;64127;51.488;5.462;2022-11-02T17:42:42;9.67;;;4.03;;
75429;SDS011;64127;51.488;5.462;2022-11-02T17:45:29;11.10;;;3.83;;
75429;SDS011;64127;51.488;5.462;2022-11-02T17:48:09;10.77;;;3.60;;
75429;SDS011;64127;51.488;5.462;2022-11-02T17:50:41;9.73;;;3.47;;
75429;SDS011;64127;51.488;5.462;2022-11-02T17:53:13;8.47;;;3.47;;
75429;SDS011;64127;51.488;5.462;2022-11-02T17:55:45;7.40;;;3.20;;
75429;SDS011;64127;51.488;5.462;2022-11-02T17:58:17;8.03;;;3.00;;
75429;SDS011;64127;51.488;5.462;2022-11-02T18:00:49;9.90;;;3.03;;
75429;SDS011;64127;51.488;5.462;2022-11-02T18:03:24;10.07;;;3.33;;
75429;SDS011;64127;51.488;5.462;2022-11-02T18:06:01;8.10;;;2.80;;
75429;SDS011;64127;51.488;5.462;2022-11-02T18:08:34;7.70;;;2.80;;
75429;SDS011;64127;51.488;5.462;2022-11-02T18:11:26;6.70;;;2.63;;
75429;SDS011;64127;51.488;5.462;2022-11-02T18:13:58;6.60;;;3.10;;
75429;SDS011;64127;51.488;5.462;2022-11-02T18:16:30;6.77;;;2.97;;
75429;SDS011;64127;51.488;5.462;2022-11-02T18:19:02;7.17;;;2.90;;
75429;SDS011;64127;51.488;5.462;2022-11-02T18:21:34;7.33;;;3.43;;
75429;SDS011;64127;51.488;5.462;2022-11-02T18:24:06;10.03;;;3.20;;
75429;SDS011;64127;51.488;5.462;2022-11-02T18:26:38;7.20;;;2.93;;
75429;SDS011;64127;51.488;5.462;2022-11-02T18:29:17;9.03;;;2.90;;
75429;SDS011;64127;51.488;5.462;2022-11-02T18:31:49;5.97;;;3.00;;
75429;SDS011;64127;51.488;5.462;2022-11-02T18:34:20;6.27;;;2.93;;
75429;SDS011;64127;51.488;5.462;2022-11-02T18:36:53;9.80;;;3.13;;
75429;SDS011;64127;51.488;5.462;2022-11-02T18:39:24;8.27;;;2.90;;
75429;SDS011;64127;51.488;5.462;2022-11-02T18:41:56;9.10;;;3.20;;
75429;SDS011;64127;51.488;5.462;2022-11-02T18:44:28;8.20;;;3.17;;
75429;SDS011;64127;51.488;5.462;2022-11-02T18:47:01;8.27;;;3.13;;
75429;SDS011;64127;51.488;5.462;2022-11-02T18:49:33;9.00;;;3.03;;
75429;SDS011;64127;51.488;5.462;2022-11-02T18:52:05;7.57;;;3.30;;
75429;SDS011;64127;51.488;5.462;2022-11-02T18:54:37;8.37;;;3.43;;
75429;SDS011;64127;51.488;5.462;2022-11-02T18:57:09;8.03;;;3.03;;
75429;SDS011;64127;51.488;5.462;2022-11-02T18:59:41;8.37;;;3.03;;
75429;SDS011;64127;51.488;5.462;2022-11-02T19:02:13;8.60;;;3.10;;